Time;durP1;ratioP1;P1;durP2;ratioP2;P2;SDS_P1;SDS_P2;PMS_P1;PMS_P2;Temp;Humidity;BMP_temperature;BMP_pressure;BME280_temperature;BME280_humidity;BME280_pressure;Samples;Min_cycle;Max_cycle;Signal;HPM_P1;HPM_P2
2024/01/31 00:02:16;;;;;;;1.50;0.90;;;8.20;92.20;;;;;;4994887;28;20045;-66
2024/01/31 00:04:42;;;;;;;1.15;0.90;;;8.10;92.10;;;;;;4992491;28;20529;-67
2024/01/31 00:07:07;;;;;;;0.82;0.80;;;8.10;92.10;;;;;;4994084;28;20377;-67
2024/01/31 00:09:33;;;;;;;0.93;0.80;;;8.10;92.10;;;;;;4989211;28;20460;-68
2024/01/31 00:11:58;;;;;;;1.25;0.70;;;8.20;92.10;;;;;;4994987;28;20026;-66
2024/01/31 00:14:24;;;;;;;1.80;0.85;;;8.20;92.00;;;;;;4998312;28;20102;-67
2024/01/31 00:16:51;;;;;;;2.15;1.10;;;8.10;92.00;;;;;;4994518;28;20481;-66
2024/01/31 00:19:16;;;;;;;1.23;1.00;;;8.20;92.00;;;;;;4991837;28;20018;-67
2024/01/31 00:21:42;;;;;;;0.75;0.75;;;8.10;91.90;;;;;;4992551;28;20033;-67
2024/01/31 00:24:09;;;;;;;1.73;0.80;;;8.10;91.90;;;;;;4991622;28;20097;-67
2024/01/31 00:26:35;;;;;;;1.35;0.90;;;8.00;91.90;;;;;;4986024;28;20938;-68
2024/01/31 00:29:01;;;;;;;2.58;0.80;;;8.00;91.90;;;;;;4988850;28;20022;-67
2024/01/31 00:31:26;;;;;;;2.30;1.10;;;8.00;91.90;;;;;;4990596;28;20044;-68
2024/01/31 00:33:52;;;;;;;1.05;0.80;;;8.00;92.00;;;;;;4989332;28;20025;-68
2024/01/31 00:36:17;;;;;;;2.45;1.00;;;8.00;92.00;;;;;;4993356;28;20032;-67
2024/01/31 00:38:43;;;;;;;1.52;1.00;;;8.00;92.00;;;;;;4992725;28;20540;-67
2024/01/31 00:41:08;;;;;;;1.45;0.73;;;8.00;91.90;;;;;;4992556;28;20514;-67
2024/01/31 00:43:34;;;;;;;2.30;0.85;;;8.00;91.90;;;;;;4993158;28;20034;-67
2024/01/31 00:46:03;;;;;;;2.10;0.95;;;8.00;91.90;;;;;;4996074;28;20030;-67
2024/01/31 00:48:29;;;;;;;2.65;1.00;;;7.90;91.80;;;;;;4987277;28;20027;-67
2024/01/31 00:50:54;;;;;;;1.95;0.80;;;7.90;91.90;;;;;;4990291;28;20053;-67
2024/01/31 00:53:20;;;;;;;1.95;0.70;;;7.90;91.90;;;;;;4991615;28;20026;-68
2024/01/31 00:55:46;;;;;;;0.80;0.80;;;7.90;91.90;;;;;;4996845;28;20042;-68
2024/01/31 00:58:11;;;;;;;1.00;0.80;;;7.90;91.90;;;;;;4997937;28;20032;-68
2024/01/31 01:00:37;;;;;;;1.33;0.80;;;7.90;91.80;;;;;;4991430;28;20034;-69
2024/01/31 01:03:02;;;;;;;1.15;0.80;;;7.90;91.90;;;;;;4996136;28;20030;-69
2024/01/31 01:05:28;;;;;;;0.93;0.80;;;7.90;91.80;;;;;;4995308;28;20473;-68
2024/01/31 01:07:54;;;;;;;1.38;0.90;;;7.90;91.80;;;;;;4988096;28;20045;-68
2024/01/31 01:10:19;;;;;;;0.80;0.80;;;7.90;91.80;;;;;;4988655;28;20151;-68
2024/01/31 01:12:45;;;;;;;1.98;0.93;;;7.90;91.80;;;;;;4992691;28;20026;-69
2024/01/31 01:15:11;;;;;;;0.73;0.70;;;7.90;91.80;;;;;;4993655;28;20018;-69
2024/01/31 01:17:37;;;;;;;1.35;0.88;;;8.00;91.80;;;;;;4993936;28;20042;-68
2024/01/31 01:20:03;;;;;;;1.40;0.90;;;8.00;91.70;;;;;;4996036;28;20033;-68
2024/01/31 01:22:29;;;;;;;1.20;0.98;;;7.90;91.60;;;;;;4988659;28;20031;-68
2024/01/31 01:24:55;;;;;;;1.45;0.70;;;7.90;91.70;;;;;;4995688;28;20555;-67
2024/01/31 01:27:20;;;;;;;1.05;0.70;;;7.90;91.70;;;;;;4996106;28;20421;-68
2024/01/31 01:29:46;;;;;;;0.80;0.70;;;7.90;91.70;;;;;;4996928;28;20029;-68
2024/01/31 01:32:11;;;;;;;1.00;0.70;;;8.00;91.70;;;;;;4999474;28;20025;-66
2024/01/31 01:34:43;;;;;;;0.73;0.60;;;8.00;91.70;;;;;;5007164;28;20022;-67
2024/01/31 01:37:08;;;;;;;0.65;0.63;;;7.90;91.70;;;;;;4994471;28;20045;-67
2024/01/31 01:39:35;;;;;;;1.60;0.85;;;8.00;91.70;;;;;;4992074;28;20054;-67
2024/01/31 01:42:01;;;;;;;0.77;0.70;;;8.00;91.70;;;;;;4998843;28;20037;-67
2024/01/31 01:44:32;;;;;;;1.00;0.75;;;8.00;91.70;;;;;;4995403;28;20018;-68
2024/01/31 01:46:58;;;;;;;0.63;0.60;;;8.00;91.70;;;;;;4999308;28;20030;-69
2024/01/31 01:49:23;;;;;;;0.70;0.63;;;8.00;91.60;;;;;;4999544;28;20030;-68
2024/01/31 01:51:50;;;;;;;1.05;0.95;;;8.10;91.70;;;;;;4998140;28;20037;-69
2024/01/31 01:54:16;;;;;;;0.70;0.70;;;8.10;91.60;;;;;;4992161;28;20073;-70
2024/01/31 01:56:44;;;;;;;0.70;0.70;;;8.10;91.50;;;;;;4999665;28;20046;-69
2024/01/31 01:59:11;;;;;;;0.75;0.63;;;8.10;91.50;;;;;;4993780;28;20027;-69
2024/01/31 02:01:38;;;;;;;0.90;0.68;;;8.10;91.60;;;;;;4998076;28;20034;-70
2024/01/31 02:04:07;;;;;;;1.27;0.70;;;8.20;91.60;;;;;;4989452;28;20027;-69
2024/01/31 02:06:32;;;;;;;0.70;0.70;;;8.10;91.60;;;;;;4994787;28;20581;-70
2024/01/31 02:08:59;;;;;;;1.00;0.70;;;8.10;91.60;;;;;;4997657;28;20026;-69
2024/01/31 02:11:25;;;;;;;0.90;0.70;;;8.10;91.60;;;;;;4998941;28;20024;-69
2024/01/31 02:13:50;;;;;;;1.42;0.77;;;8.10;91.70;;;;;;4998245;28;20417;-70
2024/01/31 02:16:16;;;;;;;2.15;0.70;;;8.10;91.60;;;;;;4999409;28;20029;-68
2024/01/31 02:18:41;;;;;;;0.95;0.68;;;8.10;91.60;;;;;;4997852;28;20019;-68
2024/01/31 02:21:07;;;;;;;0.65;0.60;;;8.10;91.60;;;;;;4994016;28;20026;-69
2024/01/31 02:23:33;;;;;;;0.65;0.60;;;8.10;91.60;;;;;;4995907;28;20033;-68
2024/01/31 02:25:58;;;;;;;3.03;0.70;;;8.10;91.60;;;;;;4998768;28;20109;-69
2024/01/31 02:28:24;;;;;;;1.15;0.77;;;8.10;91.50;;;;;;5002963;28;20041;-69
2024/01/31 02:30:50;;;;;;;2.53;1.05;;;8.00;91.50;;;;;;4997844;28;20109;-68
2024/01/31 02:33:16;;;;;;;1.30;0.90;;;8.00;91.60;;;;;;5001223;28;20216;-68
2024/01/31 02:35:41;;;;;;;1.23;0.82;;;8.00;91.60;;;;;;4999677;28;20097;-68
2024/01/31 02:38:07;;;;;;;2.35;0.90;;;7.90;91.60;;;;;;4997207;28;20049;-69
2024/01/31 02:40:32;;;;;;;0.75;0.63;;;7.90;91.60;;;;;;5002430;28;20032;-69
2024/01/31 02:42:59;;;;;;;0.90;0.70;;;7.90;91.70;;;;;;4991378;28;20062;-69
2024/01/31 02:45:25;;;;;;;0.90;0.70;;;7.90;91.60;;;;;;4997977;28;20492;-67
2024/01/31 02:47:50;;;;;;;0.77;0.73;;;7.90;91.60;;;;;;4995908;28;20026;-68
2024/01/31 02:50:16;;;;;;;0.75;0.75;;;7.90;91.60;;;;;;5004691;28;20093;-68
2024/01/31 02:52:42;;;;;;;1.10;0.80;;;8.00;91.70;;;;;;4992950;28;20018;-68
2024/01/31 02:55:08;;;;;;;1.17;0.70;;;8.00;91.60;;;;;;4995322;28;20053;-68
2024/01/31 02:57:34;;;;;;;1.00;0.80;;;8.00;91.60;;;;;;5002244;28;20030;-67
2024/01/31 03:00:00;;;;;;;0.70;0.70;;;8.00;91.60;;;;;;4992577;28;20073;-66
2024/01/31 03:02:26;;;;;;;1.27;0.70;;;8.00;91.60;;;;;;4998855;28;20430;-67
2024/01/31 03:04:51;;;;;;;0.80;0.70;;;7.90;91.60;;;;;;5001727;28;20030;-67
2024/01/31 03:07:17;;;;;;;1.52;0.80;;;7.90;91.70;;;;;;5001594;28;20034;-67
2024/01/31 03:09:43;;;;;;;1.48;0.70;;;7.90;91.70;;;;;;4998302;28;20022;-67
2024/01/31 03:12:08;;;;;;;0.93;0.77;;;7.90;91.80;;;;;;4998405;28;21464;-67
2024/01/31 03:14:35;;;;;;;1.23;1.13;;;7.90;91.70;;;;;;4991925;28;20034;-68
2024/01/31 03:17:00;;;;;;;1.27;0.80;;;7.90;91.70;;;;;;4989552;28;20019;-66
2024/01/31 03:19:31;;;;;;;2.08;0.75;;;7.90;91.70;;;;;;5001030;28;20018;-68
2024/01/31 03:21:57;;;;;;;0.60;0.60;;;7.90;91.70;;;;;;5006235;28;20041;-67
2024/01/31 03:24:22;;;;;;;1.48;0.70;;;7.90;91.70;;;;;;4999712;28;20440;-68
2024/01/31 03:26:48;;;;;;;0.82;0.70;;;7.90;91.80;;;;;;4993760;28;20022;-67
2024/01/31 03:29:14;;;;;;;0.60;0.60;;;7.90;91.70;;;;;;4997023;28;20060;-68
2024/01/31 03:31:40;;;;;;;0.95;0.80;;;7.90;91.70;;;;;;4996814;28;20404;-68
2024/01/31 03:34:05;;;;;;;0.65;0.65;;;7.90;91.60;;;;;;4991939;28;20064;-66
2024/01/31 03:36:32;;;;;;;2.15;0.75;;;8.00;91.60;;;;;;4992904;28;20026;-65
2024/01/31 03:38:58;;;;;;;1.85;0.70;;;8.00;91.60;;;;;;4999351;28;20101;-66
2024/01/31 03:41:25;;;;;;;0.80;0.70;;;8.00;91.60;;;;;;5001485;28;20033;-66
2024/01/31 03:43:50;;;;;;;0.60;0.60;;;8.00;91.60;;;;;;5003160;28;20101;-66
2024/01/31 03:46:16;;;;;;;1.52;0.80;;;8.00;91.60;;;;;;4992246;28;20726;-66
2024/01/31 03:48:42;;;;;;;1.10;0.70;;;7.90;91.60;;;;;;4999873;28;20033;-66
2024/01/31 03:51:20;;;;;;;1.45;0.70;;;7.90;91.70;;;;;;4997057;28;20076;-66
2024/01/31 03:53:46;;;;;;;1.13;0.70;;;7.90;91.60;;;;;;4985727;28;20021;-66
2024/01/31 03:56:12;;;;;;;0.60;0.60;;;7.90;91.70;;;;;;4993752;28;20018;-66
2024/01/31 03:58:39;;;;;;;1.02;0.70;;;7.90;91.60;;;;;;4998878;28;20034;-67
2024/01/31 04:01:04;;;;;;;1.85;0.60;;;7.90;91.70;;;;;;5000119;28;20053;-66
2024/01/31 04:03:30;;;;;;;0.80;0.73;;;7.90;91.60;;;;;;4999069;28;20104;-66
2024/01/31 04:05:55;;;;;;;0.80;0.70;;;8.00;91.70;;;;;;4992659;28;20026;-67
2024/01/31 04:08:21;;;;;;;0.70;0.70;;;7.90;91.60;;;;;;4993242;28;20033;-68
2024/01/31 04:10:47;;;;;;;0.60;0.60;;;7.90;91.60;;;;;;4985587;28;20033;-69
2024/01/31 04:13:12;;;;;;;0.95;0.70;;;8.00;91.50;;;;;;4989882;28;20030;-68
2024/01/31 04:15:38;;;;;;;1.23;0.98;;;8.00;91.50;;;;;;4989219;28;20081;-68
2024/01/31 04:18:04;;;;;;;1.65;0.93;;;7.90;91.50;;;;;;4998998;28;20259;-67
2024/01/31 04:20:30;;;;;;;1.48;0.80;;;7.80;91.50;;;;;;5000233;28;20053;-67
2024/01/31 04:22:56;;;;;;;1.30;1.00;;;7.80;91.70;;;;;;4995038;28;20389;-68
2024/01/31 04:25:21;;;;;;;0.82;0.70;;;7.80;91.50;;;;;;4995466;28;20687;-67
2024/01/31 04:27:47;;;;;;;0.90;0.70;;;7.80;91.50;;;;;;4996558;28;20029;-68
2024/01/31 04:30:13;;;;;;;2.60;1.00;;;7.80;91.50;;;;;;4997956;28;20022;-68
2024/01/31 04:32:38;;;;;;;1.88;0.98;;;7.80;91.50;;;;;;4987719;28;20026;-68
2024/01/31 04:35:08;;;;;;;0.80;0.80;;;7.70;91.50;;;;;;5000246;28;20029;-68
2024/01/31 04:37:34;;;;;;;1.73;1.17;;;7.80;91.60;;;;;;5004357;28;20182;-67
2024/01/31 04:40:00;;;;;;;1.05;0.82;;;7.70;91.60;;;;;;4999960;28;20069;-67
2024/01/31 04:42:25;;;;;;;1.65;1.00;;;7.70;91.60;;;;;;5003157;28;20050;-68
2024/01/31 04:44:51;;;;;;;1.27;0.63;;;7.70;91.60;;;;;;4991844;28;20038;-68
2024/01/31 04:47:16;;;;;;;2.20;1.17;;;7.70;91.60;;;;;;5004312;28;20025;-67
2024/01/31 04:49:42;;;;;;;3.05;1.20;;;7.70;91.60;;;;;;4997654;28;20068;-68
2024/01/31 04:52:08;;;;;;;1.50;0.98;;;7.70;91.70;;;;;;4994093;28;20477;-67
2024/01/31 04:54:37;;;;;;;0.70;0.70;;;7.70;91.70;;;;;;4992924;28;20092;-67
2024/01/31 04:57:03;;;;;;;0.80;0.80;;;7.70;91.60;;;;;;4998384;28;20374;-68
2024/01/31 04:59:29;;;;;;;2.63;0.95;;;7.70;91.60;;;;;;5002063;28;20033;-67
2024/01/31 05:01:54;;;;;;;1.92;0.82;;;7.70;91.60;;;;;;4994086;28;20026;-67
2024/01/31 05:04:20;;;;;;;1.40;0.85;;;7.80;91.60;;;;;;5001093;28;20080;-68
2024/01/31 05:06:46;;;;;;;1.48;1.10;;;7.80;91.60;;;;;;5001987;28;20686;-68
2024/01/31 05:09:11;;;;;;;1.35;0.90;;;7.70;91.60;;;;;;5005041;28;20515;-68
2024/01/31 05:11:37;;;;;;;1.77;0.80;;;7.70;91.60;;;;;;4989288;28;20072;-67
2024/01/31 05:14:03;;;;;;;1.48;0.80;;;7.70;91.90;;;;;;4995160;28;20090;-67
2024/01/31 05:16:29;;;;;;;0.80;0.80;;;7.80;91.60;;;;;;5000406;28;20057;-67
2024/01/31 05:18:54;;;;;;;2.15;0.75;;;7.70;91.60;;;;;;4997919;28;20057;-67
2024/01/31 05:21:20;;;;;;;1.10;0.73;;;7.80;91.60;;;;;;5001388;28;20040;-69
2024/01/31 05:23:45;;;;;;;1.95;0.88;;;7.70;91.60;;;;;;4997463;28;20088;-68
2024/01/31 05:26:11;;;;;;;0.98;0.82;;;7.80;91.70;;;;;;4993525;28;20030;-68
2024/01/31 05:28:36;;;;;;;0.70;0.70;;;7.70;91.70;;;;;;4998531;28;20105;-68
2024/01/31 05:31:03;;;;;;;0.73;0.65;;;7.80;91.70;;;;;;4987551;28;20097;-67
2024/01/31 05:33:29;;;;;;;0.98;0.82;;;7.80;91.70;;;;;;4995869;28;20029;-68
2024/01/31 05:35:57;;;;;;;0.90;0.90;;;7.80;91.70;;;;;;4989869;28;20086;-68
2024/01/31 05:38:23;;;;;;;1.10;1.00;;;7.80;91.70;;;;;;5001828;28;20033;-68
2024/01/31 05:40:49;;;;;;;2.53;1.20;;;7.70;91.70;;;;;;4989932;28;20027;-68
2024/01/31 05:43:14;;;;;;;1.45;1.08;;;7.70;91.70;;;;;;4984286;28;20113;-68
2024/01/31 05:45:40;;;;;;;2.08;1.00;;;7.60;91.70;;;;;;4992506;28;20033;-68
2024/01/31 05:48:06;;;;;;;1.63;1.10;;;7.60;91.70;;;;;;5000237;28;20088;-68
2024/01/31 05:50:32;;;;;;;1.83;1.10;;;7.60;91.70;;;;;;4995607;28;20030;-67
2024/01/31 05:52:57;;;;;;;3.10;1.42;;;7.60;91.70;;;;;;4999631;28;20081;-68
2024/01/31 05:55:23;;;;;;;1.90;1.10;;;7.50;91.70;;;;;;4995226;28;20160;-68
2024/01/31 05:57:49;;;;;;;2.13;1.10;;;7.50;91.70;;;;;;4996648;28;20405;-68
2024/01/31 06:00:15;;;;;;;3.20;1.50;;;7.60;91.70;;;;;;4989136;28;20038;-69
2024/01/31 06:02:41;;;;;;;2.17;1.08;;;7.50;91.70;;;;;;4992397;28;20033;-69
2024/01/31 06:05:07;;;;;;;1.27;1.00;;;7.50;91.70;;;;;;4990714;28;20404;-67
2024/01/31 06:07:32;;;;;;;1.58;0.80;;;7.50;91.70;;;;;;4991056;28;20031;-67
2024/01/31 06:09:58;;;;;;;0.80;0.80;;;7.60;91.70;;;;;;4989924;28;20334;-69
2024/01/31 06:12:23;;;;;;;1.05;0.80;;;7.60;91.70;;;;;;4988499;28;20029;-67
2024/01/31 06:14:49;;;;;;;2.35;1.00;;;7.70;91.70;;;;;;4995571;28;20027;-66
2024/01/31 06:17:16;;;;;;;1.45;1.00;;;7.60;91.70;;;;;;4983374;28;20042;-68
2024/01/31 06:19:43;;;;;;;0.98;0.90;;;7.60;91.70;;;;;;4986190;28;20033;-68
2024/01/31 06:22:08;;;;;;;1.10;1.00;;;7.60;91.70;;;;;;4992184;28;20014;-69
2024/01/31 06:24:34;;;;;;;1.60;1.23;;;7.60;91.70;;;;;;4997676;28;20554;-68
2024/01/31 06:26:59;;;;;;;2.38;1.25;;;7.50;91.70;;;;;;4991499;28;20034;-68
2024/01/31 06:29:25;;;;;;;1.38;1.10;;;7.50;91.80;;;;;;4996994;28;20062;-70
2024/01/31 06:31:52;;;;;;;0.80;0.80;;;7.60;92.10;;;;;;4992611;28;20127;-69
2024/01/31 06:34:18;;;;;;;1.48;0.90;;;7.60;91.70;;;;;;4993304;28;20033;-68
2024/01/31 06:36:44;;;;;;;1.65;1.10;;;7.60;91.70;;;;;;4992301;28;20029;-68
2024/01/31 06:39:10;;;;;;;1.20;1.10;;;7.50;91.70;;;;;;5002327;28;20088;-68
2024/01/31 06:41:37;;;;;;;1.83;1.13;;;7.50;91.70;;;;;;4997804;28;20021;-69
2024/01/31 06:44:03;;;;;;;1.63;1.10;;;7.50;91.80;;;;;;4997500;28;20050;-67
2024/01/31 06:46:29;;;;;;;1.52;1.30;;;7.50;91.80;;;;;;4988624;28;20076;-68
2024/01/31 06:48:55;;;;;;;2.97;1.33;;;7.50;91.80;;;;;;4995336;28;20459;-68
2024/01/31 06:51:20;;;;;;;1.65;1.17;;;7.50;91.70;;;;;;4989036;28;20069;-68
2024/01/31 06:53:46;;;;;;;1.73;1.00;;;7.50;91.80;;;;;;4989800;28;20057;-69
2024/01/31 06:56:17;;;;;;;1.30;1.00;;;7.60;91.80;;;;;;4988064;28;20049;-71
2024/01/31 06:58:52;;;;;;;0.90;0.90;;;7.60;91.70;;;;;;4995790;28;20022;-69
2024/01/31 07:01:18;;;;;;;2.45;1.00;;;7.60;91.70;;;;;;4992700;28;20500;-68
2024/01/31 07:03:45;;;;;;;1.73;0.90;;;7.60;91.70;;;;;;4992644;28;20113;-68
2024/01/31 07:06:11;;;;;;;1.42;0.93;;;7.70;91.70;;;;;;4994447;28;20030;-69
2024/01/31 07:08:38;;;;;;;1.00;0.90;;;7.70;91.70;;;;;;4991301;28;20057;-70
2024/01/31 07:11:08;;;;;;;2.28;1.00;;;7.70;91.70;;;;;;4989891;28;20128;-68
2024/01/31 07:13:34;;;;;;;1.13;0.98;;;7.70;92.00;;;;;;4988740;28;20026;-68
2024/01/31 07:16:04;;;;;;;1.30;1.10;;;7.70;91.70;;;;;;4996395;28;20186;-69
2024/01/31 07:18:30;;;;;;;1.10;1.05;;;7.70;91.70;;;;;;4993801;28;20121;-68
2024/01/31 07:20:55;;;;;;;1.13;1.02;;;7.70;91.70;;;;;;4992312;28;20030;-68
2024/01/31 07:23:21;;;;;;;1.13;0.95;;;7.60;91.70;;;;;;4989620;28;20030;-69
2024/01/31 07:25:46;;;;;;;1.20;1.10;;;7.70;91.70;;;;;;4991927;28;20027;-68
2024/01/31 07:28:12;;;;;;;0.98;0.98;;;7.70;91.70;;;;;;4988816;28;20018;-68
2024/01/31 07:30:37;;;;;;;1.92;1.00;;;7.70;91.70;;;;;;4997404;28;20033;-67
2024/01/31 07:33:03;;;;;;;1.00;1.00;;;7.70;91.70;;;;;;4989409;28;20050;-67
2024/01/31 07:35:28;;;;;;;1.00;1.00;;;7.70;91.70;;;;;;4988286;28;20026;-68
2024/01/31 07:37:54;;;;;;;1.27;1.00;;;7.70;91.70;;;;;;4990701;28;20026;-69
2024/01/31 07:40:19;;;;;;;1.30;1.20;;;7.70;91.70;;;;;;4991750;28;20038;-69
2024/01/31 07:42:45;;;;;;;1.20;1.10;;;7.70;91.70;;;;;;4990011;28;20121;-70
2024/01/31 07:45:11;;;;;;;1.20;1.10;;;7.60;91.60;;;;;;4990156;28;20029;-70
2024/01/31 07:47:38;;;;;;;1.20;1.10;;;7.70;91.70;;;;;;4990889;28;20397;-70
2024/01/31 07:50:07;;;;;;;1.50;1.05;;;7.70;91.60;;;;;;4989625;28;20073;-68
2024/01/31 07:52:33;;;;;;;1.25;1.15;;;7.70;91.60;;;;;;4986471;28;20366;-68
2024/01/31 07:54:59;;;;;;;1.08;0.95;;;7.70;91.60;;;;;;4990723;28;20084;-67
2024/01/31 07:57:24;;;;;;;1.20;1.10;;;7.70;91.60;;;;;;4988431;28;20030;-66
2024/01/31 07:59:50;;;;;;;1.20;1.10;;;7.80;91.60;;;;;;4987013;28;20022;-68
2024/01/31 08:02:15;;;;;;;1.13;1.02;;;7.80;91.60;;;;;;4986290;28;20018;-69
2024/01/31 08:04:42;;;;;;;1.33;1.23;;;7.80;91.50;;;;;;4988481;28;20034;-69
2024/01/31 08:07:11;;;;;;;1.20;1.10;;;7.70;91.50;;;;;;4994654;28;20105;-67
2024/01/31 08:09:39;;;;;;;1.35;1.25;;;7.80;91.50;;;;;;4989837;28;20037;-67
2024/01/31 08:12:06;;;;;;;1.38;1.27;;;7.70;91.50;;;;;;4986553;28;20019;-68
2024/01/31 08:14:31;;;;;;;1.40;1.30;;;7.80;91.50;;;;;;4991927;28;20481;-67
2024/01/31 08:16:57;;;;;;;1.88;1.38;;;7.80;91.50;;;;;;4983331;28;20029;-67
2024/01/31 08:19:22;;;;;;;3.00;1.67;;;7.80;91.50;;;;;;4995463;28;20480;-67
2024/01/31 08:21:48;;;;;;;2.72;1.38;;;7.80;91.40;;;;;;4994486;28;20038;-67
2024/01/31 08:24:13;;;;;;;1.70;1.50;;;7.80;91.40;;;;;;4995354;28;20402;-68
2024/01/31 08:26:39;;;;;;;1.50;1.40;;;7.80;91.40;;;;;;4991250;28;20033;-67
2024/01/31 08:29:04;;;;;;;2.47;1.92;;;7.90;91.40;;;;;;5001049;28;20021;-68
2024/01/31 08:31:30;;;;;;;2.13;1.60;;;7.90;91.40;;;;;;5003707;28;20559;-69
2024/01/31 08:33:55;;;;;;;1.98;1.70;;;7.90;91.60;;;;;;4997578;28;20022;-68
2024/01/31 08:36:21;;;;;;;2.67;1.70;;;7.80;91.30;;;;;;4993622;28;20053;-68
2024/01/31 08:38:46;;;;;;;3.83;2.45;;;7.90;91.40;;;;;;4987137;28;20081;-68
2024/01/31 08:41:12;;;;;;;4.65;2.28;;;7.80;91.30;;;;;;4987353;28;20104;-69
2024/01/31 08:43:38;;;;;;;2.13;1.67;;;7.80;91.30;;;;;;4987894;28;20038;-68
2024/01/31 08:46:03;;;;;;;4.00;2.00;;;7.80;91.30;;;;;;4986382;28;20035;-69
2024/01/31 08:48:29;;;;;;;2.65;1.60;;;7.90;91.30;;;;;;5002292;28;20092;-68
2024/01/31 08:50:57;;;;;;;2.05;1.50;;;7.90;91.30;;;;;;4987682;28;20036;-68
2024/01/31 08:53:23;;;;;;;2.85;2.05;;;7.90;91.30;;;;;;4988399;28;20110;-69
2024/01/31 08:55:48;;;;;;;2.42;1.90;;;7.90;91.20;;;;;;4985395;28;20097;-69
2024/01/31 08:58:14;;;;;;;2.28;1.90;;;7.90;91.20;;;;;;4987597;28;20390;-69
2024/01/31 09:00:39;;;;;;;2.67;1.88;;;7.90;91.20;;;;;;4986911;28;20022;-68
2024/01/31 09:03:05;;;;;;;5.43;2.90;;;8.00;91.20;;;;;;4987582;28;20089;-69
2024/01/31 09:05:30;;;;;;;3.83;2.50;;;7.90;91.10;;;;;;4987875;28;20053;-69
2024/01/31 09:07:56;;;;;;;2.80;2.10;;;7.90;91.10;;;;;;4986209;28;20089;-69
2024/01/31 09:10:22;;;;;;;2.40;1.73;;;7.90;91.10;;;;;;4987990;28;20030;-69
2024/01/31 09:12:48;;;;;;;2.90;1.70;;;7.90;91.10;;;;;;4988469;28;20023;-67
2024/01/31 09:15:14;;;;;;;6.15;2.50;;;8.00;91.10;;;;;;4988134;28;20037;-67
2024/01/31 09:17:40;;;;;;;3.95;2.60;;;8.00;91.10;;;;;;4987018;28;20507;-67
2024/01/31 09:20:06;;;;;;;3.00;1.98;;;8.00;91.10;;;;;;4988092;28;20031;-68
2024/01/31 09:22:32;;;;;;;3.92;2.00;;;8.00;91.10;;;;;;4991129;28;20031;-68
2024/01/31 09:24:57;;;;;;;3.75;1.80;;;8.00;91.10;;;;;;4988345;28;20077;-68
2024/01/31 09:27:23;;;;;;;2.92;1.83;;;8.10;91.10;;;;;;4989503;28;20470;-69
2024/01/31 09:29:48;;;;;;;2.67;1.90;;;8.20;91.00;;;;;;4989199;28;20026;-68
2024/01/31 09:32:15;;;;;;;2.33;1.70;;;8.20;91.00;;;;;;4989778;28;20053;-68
2024/01/31 09:34:41;;;;;;;4.85;2.40;;;8.20;90.90;;;;;;4992129;28;20014;-68
2024/01/31 09:37:07;;;;;;;2.88;2.17;;;8.20;90.90;;;;;;4996906;28;20030;-67
2024/01/31 09:39:32;;;;;;;2.50;1.77;;;8.20;90.90;;;;;;4995561;28;20036;-67
2024/01/31 09:41:58;;;;;;;2.05;1.75;;;8.30;90.90;;;;;;4999476;28;20023;-67
2024/01/31 09:44:25;;;;;;;6.65;3.67;;;8.40;90.80;;;;;;4992457;28;20076;-66
2024/01/31 09:46:52;;;;;;;5.32;2.83;;;8.30;90.70;;;;;;4992973;28;20021;-67
2024/01/31 09:49:18;;;;;;;3.28;2.40;;;8.30;90.70;;;;;;4990482;28;20029;-67
2024/01/31 09:51:44;;;;;;;5.00;3.10;;;8.30;90.70;;;;;;4992786;28;20034;-68
2024/01/31 09:54:09;;;;;;;5.60;3.67;;;8.40;90.70;;;;;;4995321;28;20031;-67
2024/01/31 09:56:36;;;;;;;5.50;3.00;;;8.30;90.60;;;;;;4989354;28;20073;-67
2024/01/31 09:59:05;;;;;;;4.00;2.63;;;8.30;90.60;;;;;;4988370;28;20058;-68
2024/01/31 10:01:31;;;;;;;2.47;1.95;;;8.30;90.60;;;;;;4986535;28;20031;-67
2024/01/31 10:03:57;;;;;;;2.78;2.00;;;8.40;90.50;;;;;;4987740;28;20424;-68
2024/01/31 10:06:29;;;;;;;2.28;1.80;;;8.50;90.50;;;;;;4991337;28;20030;-68
2024/01/31 10:08:58;;;;;;;2.20;1.60;;;8.60;90.50;;;;;;5020382;28;20492;-68
2024/01/31 10:11:27;;;;;;;2.88;1.42;;;8.70;90.40;;;;;;4990752;28;20046;-68
2024/01/31 10:13:53;;;;;;;2.05;1.63;;;8.80;90.40;;;;;;4989426;28;20019;-68
2024/01/31 10:16:19;;;;;;;3.60;2.38;;;8.90;90.40;;;;;;4990990;28;20018;-68
2024/01/31 10:18:45;;;;;;;2.75;1.83;;;8.90;90.30;;;;;;4997886;28;20464;-67
2024/01/31 10:21:10;;;;;;;4.03;2.40;;;8.90;90.30;;;;;;4992038;28;20113;-67
2024/01/31 10:23:36;;;;;;;6.22;4.03;;;8.90;90.20;;;;;;4994309;28;20380;-68
2024/01/31 10:26:02;;;;;;;6.03;4.07;;;8.90;90.20;;;;;;4990565;28;20026;-68
2024/01/31 10:28:28;;;;;;;7.10;4.18;;;8.80;90.20;;;;;;4996911;28;20035;-68
2024/01/31 10:30:55;;;;;;;5.35;3.25;;;8.70;90.20;;;;;;4991219;28;20477;-67
2024/01/31 10:33:22;;;;;;;4.85;2.67;;;8.70;90.30;;;;;;4992590;28;20110;-68
2024/01/31 10:35:48;;;;;;;4.25;2.55;;;8.80;90.20;;;;;;4994046;28;20029;-68
2024/01/31 10:38:14;;;;;;;3.40;2.13;;;8.90;90.30;;;;;;4992908;28;20030;-68
2024/01/31 10:40:41;;;;;;;5.45;2.97;;;8.90;90.30;;;;;;5000569;28;20026;-67
2024/01/31 10:43:10;;;;;;;5.63;3.20;;;8.90;90.20;;;;;;4989488;28;20943;-67
2024/01/31 10:45:35;;;;;;;4.90;2.88;;;8.90;90.30;;;;;;4992716;28;20030;-68
2024/01/31 10:48:02;;;;;;;5.78;3.15;;;8.90;90.30;;;;;;4992504;28;20497;-68
2024/01/31 10:50:29;;;;;;;8.80;3.88;;;8.90;90.30;;;;;;4986042;28;20038;-67
2024/01/31 10:52:56;;;;;;;5.57;3.13;;;8.90;90.30;;;;;;4989882;28;20022;-68
2024/01/31 10:55:22;;;;;;;4.97;3.17;;;9.00;90.30;;;;;;4986678;28;20128;-69
2024/01/31 10:57:48;;;;;;;8.32;4.70;;;9.00;90.30;;;;;;4994368;28;20036;-68
2024/01/31 11:00:25;;;;;;;10.68;5.38;;;9.00;90.30;;;;;;4987765;28;20031;-67
2024/01/31 11:02:51;;;;;;;10.82;5.53;;;8.90;90.30;;;;;;4989742;28;20177;-66
2024/01/31 11:05:17;;;;;;;14.18;7.25;;;8.90;90.30;;;;;;4991178;28;20121;-68
2024/01/31 11:07:46;;;;;;;8.80;4.90;;;8.80;90.40;;;;;;4989405;28;20092;-67
2024/01/31 11:10:17;;;;;;;14.70;7.32;;;8.90;90.50;;;;;;4990461;28;20031;-68
2024/01/31 11:12:43;;;;;;;13.93;7.45;;;8.80;90.50;;;;;;4991279;28;20069;-69
2024/01/31 11:15:08;;;;;;;12.18;6.20;;;8.80;90.60;;;;;;4999025;28;20030;-69
2024/01/31 11:17:35;;;;;;;14.88;7.45;;;8.80;90.70;;;;;;4988578;28;20493;-69
2024/01/31 11:20:01;;;;;;;19.73;9.25;;;8.90;90.70;;;;;;4984975;28;20437;-69
2024/01/31 11:22:27;;;;;;;13.35;6.55;;;8.80;90.70;;;;;;4993293;28;20018;-68
2024/01/31 11:24:54;;;;;;;11.70;6.10;;;8.90;90.80;;;;;;4995662;28;20044;-68
2024/01/31 11:27:20;;;;;;;10.25;5.53;;;8.80;90.80;;;;;;4987606;28;20026;-68
2024/01/31 11:29:50;;;;;;;11.65;5.97;;;8.90;90.80;;;;;;4989759;28;20029;-69
2024/01/31 11:32:22;;;;;;;10.68;5.38;;;8.90;90.90;;;;;;4990484;28;20493;-69
2024/01/31 11:34:58;;;;;;;17.90;9.10;;;9.00;90.90;;;;;;4990659;28;20169;-69
2024/01/31 11:37:24;;;;;;;15.63;8.02;;;8.90;90.90;;;;;;4988575;28;21575;-68
2024/01/31 11:39:49;;;;;;;23.70;10.55;;;8.90;91.00;;;;;;4991630;28;20042;-68
2024/01/31 11:42:15;;;;;;;16.88;8.73;;;8.90;91.00;;;;;;4989637;28;20030;-69
2024/01/31 11:44:41;;;;;;;13.40;6.60;;;8.90;91.10;;;;;;4990689;28;20029;-68
2024/01/31 11:47:06;;;;;;;18.05;9.38;;;9.00;91.10;;;;;;4990448;28;21666;-69
2024/01/31 11:49:32;;;;;;;17.63;9.00;;;9.00;91.10;;;;;;4991642;28;20023;-69
2024/01/31 11:51:57;;;;;;;23.90;9.85;;;8.90;91.10;;;;;;4986015;28;20033;-69
2024/01/31 11:54:23;;;;;;;14.65;8.23;;;8.90;91.20;;;;;;4989467;28;20026;-68
2024/01/31 11:56:50;;;;;;;13.70;6.63;;;8.90;91.20;;;;;;4989528;28;20520;-68
2024/01/31 11:59:16;;;;;;;14.25;7.00;;;9.00;91.20;;;;;;4989921;28;20033;-68
2024/01/31 12:01:42;;;;;;;14.13;7.25;;;9.00;91.10;;;;;;4990290;28;20030;-70
2024/01/31 12:04:07;;;;;;;17.08;8.32;;;9.00;91.10;;;;;;4969677;28;20038;-67
2024/01/31 12:06:33;;;;;;;12.30;6.43;;;9.10;91.10;;;;;;4988995;28;20033;-68
2024/01/31 12:08:59;;;;;;;12.90;6.65;;;9.10;91.10;;;;;;4988712;28;20129;-68
2024/01/31 12:11:25;;;;;;;11.45;6.28;;;9.10;91.10;;;;;;4992007;28;20049;-67
2024/01/31 12:13:50;;;;;;;14.73;8.05;;;9.10;91.10;;;;;;4990197;28;20057;-69
2024/01/31 12:16:16;;;;;;;13.10;6.93;;;9.10;91.00;;;;;;4989857;28;20018;-69
2024/01/31 12:18:42;;;;;;;12.73;6.93;;;9.10;91.10;;;;;;4987037;28;20442;-67
2024/01/31 12:21:10;;;;;;;15.82;7.75;;;9.00;91.00;;;;;;4987906;28;20669;-68
2024/01/31 12:23:36;;;;;;;10.73;5.47;;;9.00;91.00;;;;;;4986754;28;20030;-67
2024/01/31 12:26:02;;;;;;;12.35;7.15;;;9.10;91.00;;;;;;4989300;28;20033;-68
2024/01/31 12:28:28;;;;;;;10.32;6.15;;;9.00;90.90;;;;;;4986901;28;20481;-69
2024/01/31 12:30:53;;;;;;;10.55;5.50;;;9.00;90.90;;;;;;4996497;28;20576;-68
2024/01/31 12:33:20;;;;;;;15.45;8.52;;;9.10;91.00;;;;;;4989341;28;20034;-67
2024/01/31 12:35:45;;;;;;;10.52;6.40;;;9.00;90.80;;;;;;4990022;28;20085;-67
2024/01/31 12:38:12;;;;;;;12.95;7.40;;;9.00;90.70;;;;;;4989739;28;20587;-69
2024/01/31 12:40:38;;;;;;;10.23;6.28;;;9.00;90.50;;;;;;4991939;28;20507;-68
2024/01/31 12:43:04;;;;;;;11.45;6.40;;;9.00;90.50;;;;;;4989927;28;20030;-69
2024/01/31 12:45:31;;;;;;;8.18;5.07;;;9.00;90.40;;;;;;4993831;28;20061;-68
2024/01/31 12:47:57;;;;;;;10.13;5.63;;;9.00;90.40;;;;;;4988550;28;20366;-68
2024/01/31 12:50:22;;;;;;;14.43;9.30;;;9.00;90.30;;;;;;4980975;28;20050;-69